Echternach, Luxembourg

2:07 AM CEST on July 02, 2015 (GMT +0200)
Steve | | Change Station
CLOSE
Current Station
Personal Weather Station
Location: Ralingen, RHEINLAND-PFALZ
Elevation: 1112 ft
Nearby Weather Stations

Elev 1112 ft 49.81 °N, 6.55 °E | Updated 30 seconds ago

Clear
Clear
76.1 °F
Feels Like 78 °F
N
2.0
Wind Variable Wind from ESE
Gusts 2.5 mph

Today
High -- | Low -- °F
--% Chance of Precip.
Yesterday
High -- | Low -- °F
Precip. -- in
5:30 AM 9:45 PM
Full, 100% visible
Pressure 30.01 in
Visibility 6.2 miles
Clouds Clear
Heat Index 78 °F
Dew Point 58 °F
Humidity 54%
Rainfall 0.00 in
Snow Depth Not available.
UV 0.0 out of 12
Pollen Not available.
Air Quality Not available.
Flu Activity Not available.
METAR ETAD 012358Z AUTO 07003KT 9999 CLR 23/13 A3010 RMK AO2 SLP162 60000 T02290130 10302 20227 52003 $

More Conditions Fewer Conditions

Pressure 30.01 in
Visibility 6.2 miles
Clouds Clear
Heat Index 78 °F
Dew Point 58 °F
Humidity 54%
Rainfall 0.00 in
Snow Depth Not available.
UV 0.0 out of 12
Pollen Not available.
Air Quality Not available.
Flu Activity Not available.
METAR ETAD 012358Z AUTO 07003KT 9999 CLR 23/13 A3010 RMK AO2 SLP162 60000 T02290130 10302 20227 52003 $

More Conditions Fewer Conditions

10-Day Weather Forecast

×

Almanac

Astronomy

Jul. 02, 2015 Rise Set
Actual Time
Civil Twilight
Nautical Twilight
Astronomical Twilight
Moon
Length of Visible Light
Length of Day
Tomorrow will be .
, % of the Moon is Illuminated

Today's Extremes

Country Highs Country Lows

Community

WunderPhotos

Upload Photos

1,834,352 photos uploaded!

WunderBlogs® & News

Nearby

Air Quality

  Air Quality AQ Index Pollutant
Not available.

Snow Depth

Station Depth Elevation

Earthquake Activity

City Distance Mag. Time & Date
Minimum magnitude displayed is 2.5.

Coastal Water Temperatures

Place Temperature

Stations

Nearby Weather Stations

Station Location Temp. Windchill Dew Point Humidity Wind Precip. Elev Updated Type